createdAt,value
2019-04-27T00:02:27.652Z,1.27
2019-04-27T00:05:14.440Z,1.27
2019-04-27T00:07:44.276Z,1.13
2019-04-27T00:10:14.196Z,1.33
2019-04-27T00:12:42.915Z,1.47
2019-04-27T00:15:13.223Z,1.40
2019-04-27T00:17:59.862Z,1.33
2019-04-27T00:20:35.215Z,1.13
2019-04-27T00:23:11.015Z,1.40
2019-04-27T00:25:39.301Z,1.50
2019-04-27T00:28:07.552Z,1.47
2019-04-27T00:30:35.899Z,1.37
2019-04-27T00:33:05.407Z,1.27
2019-04-27T00:35:38.267Z,1.27
2019-04-27T00:38:11.130Z,1.47
2019-04-27T00:40:41.044Z,1.60
2019-04-27T00:43:09.313Z,1.40
2019-04-27T00:45:38.165Z,1.70
2019-04-27T00:48:06.423Z,1.70
2019-04-27T00:50:34.691Z,1.93
2019-04-27T00:53:03.505Z,1.80
2019-04-27T00:55:33.364Z,1.60
2019-04-27T00:58:18.519Z,1.57
2019-04-27T01:00:48.436Z,1.20
2019-04-27T01:03:33.320Z,1.50
2019-04-27T01:06:03.262Z,1.23
2019-04-27T01:08:31.652Z,1.37
2019-04-27T01:11:00.018Z,1.60
2019-04-27T01:13:29.487Z,0.90
2019-04-27T01:15:57.785Z,1.30
2019-04-27T01:18:26.065Z,1.40
2019-04-27T01:20:54.321Z,1.30
2019-04-27T01:23:22.607Z,1.33
2019-04-27T01:25:54.954Z,1.37
2019-04-27T01:28:30.564Z,1.33
2019-04-27T01:31:06.415Z,1.70
2019-04-27T01:33:34.676Z,1.20
2019-04-27T01:36:02.927Z,1.23
2019-04-27T01:38:31.283Z,1.13
2019-04-27T01:41:00.632Z,1.30
2019-04-27T01:43:30.242Z,1.07
2019-04-27T01:46:00.959Z,1.30
2019-04-27T01:48:30.576Z,1.07
2019-04-27T01:50:59.374Z,1.40
2019-04-27T01:53:28.619Z,1.30
2019-04-27T01:55:59.195Z,1.53
2019-04-27T02:00:56.808Z,1.40
2019-04-27T02:03:35.498Z,1.30
2019-04-27T02:06:03.747Z,1.70
2019-04-27T02:08:32.032Z,1.40
2019-04-27T02:11:00.276Z,1.60
2019-04-27T02:13:29.046Z,1.40
2019-04-27T02:15:58.836Z,2.30
2019-04-27T02:18:36.931Z,2.07
2019-04-27T02:20:59.038Z,2.00
2019-04-27T02:23:29.224Z,1.73
2019-04-27T02:25:58.554Z,1.80
2019-04-27T02:28:29.492Z,1.92
2019-04-27T02:31:15.831Z,1.70
2019-04-27T02:33:51.753Z,1.60
2019-04-27T02:36:20.277Z,2.30
2019-04-27T02:38:49.276Z,2.10
2019-04-27T02:41:19.785Z,1.92
2019-04-27T02:43:52.284Z,1.50
2019-04-27T02:46:20.590Z,1.83
2019-04-27T02:48:58.677Z,1.40
2019-04-27T02:51:29.986Z,1.73
2019-04-27T02:54:00.512Z,2.08
2019-04-27T02:56:30.594Z,2.00
2019-04-27T02:58:59.607Z,2.50
2019-04-27T03:01:30.532Z,2.20
2019-04-27T03:04:00.246Z,2.20
2019-04-27T03:06:30.006Z,2.33
2019-04-27T03:11:30.682Z,2.47
2019-04-27T03:14:28.313Z,2.30
2019-04-27T03:16:44.220Z,2.05
2019-04-27T03:19:26.089Z,2.37
2019-04-27T03:21:59.343Z,2.47
2019-04-27T03:24:45.487Z,2.47
2019-04-27T03:27:15.386Z,2.47
2019-04-27T03:29:43.667Z,2.33
2019-04-27T03:32:13.042Z,2.57
2019-04-27T03:34:42.157Z,2.95
2019-04-27T03:37:10.598Z,2.55
2019-04-27T03:39:39.729Z,2.33
2019-04-27T03:42:10.408Z,2.85
2019-04-27T03:44:39.849Z,2.57
2019-04-27T03:49:41.245Z,2.33
2019-04-27T03:52:20.884Z,2.00
2019-04-27T03:55:10.355Z,2.00
2019-04-27T04:02:50.203Z,1.70
2019-04-27T04:05:19.868Z,1.82
2019-04-27T04:07:50.359Z,2.35
2019-04-27T04:10:19.778Z,1.83
2019-04-27T04:12:55.934Z,1.97
2019-04-27T04:15:24.319Z,1.87
2019-04-27T04:17:52.561Z,2.23
2019-04-27T04:20:20.828Z,2.00
2019-04-27T04:22:51.460Z,2.00
2019-04-27T04:25:20.020Z,2.17
2019-04-27T04:27:50.701Z,2.52
2019-04-27T04:30:19.960Z,1.80
2019-04-27T04:32:51.609Z,1.70
2019-04-27T04:35:21.297Z,1.93
2019-04-27T04:37:52.726Z,2.17
2019-04-27T04:40:23.130Z,2.03
2019-04-27T04:42:56.198Z,4.27
2019-04-27T04:45:42.977Z,2.87
2019-04-27T04:48:15.562Z,5.03
2019-04-27T04:50:43.823Z,2.30
2019-04-27T04:53:12.841Z,3.00
2019-04-27T04:55:41.339Z,2.35
2019-04-27T04:58:09.605Z,1.93
2019-04-27T05:00:40.092Z,1.30
2019-04-27T05:03:09.398Z,1.60
2019-04-27T05:05:41.079Z,1.72
2019-04-27T05:08:09.109Z,2.30
2019-04-27T05:13:05.108Z,1.57
2019-04-27T05:15:33.387Z,1.57
2019-04-27T05:18:01.656Z,1.60
2019-04-27T05:20:40.240Z,1.50
2019-04-27T05:23:09.672Z,2.17
2019-04-27T05:25:39.016Z,1.62
2019-04-27T05:28:07.475Z,1.52
2019-04-27T05:30:35.754Z,1.70
2019-04-27T05:33:04.056Z,1.40
2019-04-27T05:35:32.304Z,1.70
2019-04-27T05:38:07.076Z,2.13
2019-04-27T05:40:31.143Z,2.03
2019-04-27T05:42:59.442Z,1.70
2019-04-27T05:45:57.718Z,1.80
2019-04-27T05:48:27.823Z,1.13
2019-04-27T05:50:58.901Z,2.10
2019-04-27T05:53:26.950Z,2.00
2019-04-27T05:55:55.205Z,2.03
2019-04-27T05:58:23.475Z,1.80
2019-04-27T06:00:51.724Z,1.80
2019-04-27T06:03:21.010Z,2.10
2019-04-27T06:05:49.348Z,1.73
2019-04-27T06:08:18.752Z,2.00
2019-04-27T06:10:48.925Z,1.90
2019-04-27T06:13:18.998Z,1.62
2019-04-27T06:15:47.343Z,1.60
2019-04-27T06:18:15.616Z,1.60
2019-04-27T06:20:53.350Z,1.60
2019-04-27T06:23:13.863Z,1.40
2019-04-27T06:25:42.107Z,1.43
2019-04-27T06:28:10.409Z,1.50
2019-04-27T06:30:39.160Z,1.63
2019-04-27T06:33:09.271Z,2.98
2019-04-27T06:35:37.487Z,1.53
2019-04-27T06:38:05.756Z,1.80
2019-04-27T06:40:35.455Z,1.50
2019-04-27T06:43:04.055Z,1.33
2019-04-27T06:45:32.310Z,1.23
2019-04-27T06:48:00.589Z,1.37
2019-04-27T06:50:29.594Z,1.30
2019-04-27T06:52:59.033Z,1.10
2019-04-27T06:55:29.023Z,1.00
2019-04-27T06:57:58.781Z,0.80
2019-04-27T07:00:28.926Z,1.00
2019-04-27T07:02:57.275Z,0.90
2019-04-27T07:05:25.581Z,0.70
2019-04-27T07:07:53.858Z,0.97
2019-04-27T07:10:22.115Z,1.03
2019-04-27T07:12:50.410Z,0.80
2019-04-27T07:15:20.446Z,0.70
2019-04-27T07:17:48.803Z,0.70
2019-04-27T07:20:18.914Z,0.87
2019-04-27T07:22:47.305Z,0.67
2019-04-27T07:25:15.588Z,0.70
2019-04-27T07:27:43.840Z,0.60
2019-04-27T07:30:12.699Z,0.40
2019-04-27T07:32:40.976Z,0.57
2019-04-27T07:35:09.846Z,0.50
2019-04-27T07:37:39.321Z,0.60
2019-04-27T07:40:09.045Z,0.40
2019-04-27T07:42:40.866Z,0.68
2019-04-27T07:45:23.983Z,0.60
2019-04-27T07:47:53.873Z,0.67
2019-04-27T07:50:22.149Z,1.30
2019-04-27T07:52:50.397Z,1.10
2019-04-27T07:55:18.814Z,0.90
2019-04-27T07:57:47.019Z,1.30
2019-04-27T08:00:16.161Z,1.40
2019-04-27T08:02:44.417Z,1.47
2019-04-27T08:05:12.709Z,1.30
2019-04-27T08:07:40.959Z,0.90
2019-04-27T08:10:09.855Z,1.07
2019-04-27T08:12:38.699Z,1.30
2019-04-27T08:15:08.828Z,1.52
2019-04-27T08:17:37.397Z,1.27
2019-04-27T08:20:07.144Z,0.90
2019-04-27T08:22:35.393Z,0.87
2019-04-27T08:25:04.002Z,0.70
2019-04-27T08:27:42.556Z,0.90
2019-04-27T08:30:21.448Z,0.90
2019-04-27T08:32:54.205Z,0.82
2019-04-27T08:35:22.477Z,0.80
2019-04-27T08:37:50.724Z,1.00
2019-04-27T08:40:19.381Z,1.00
2019-04-27T08:42:49.179Z,0.93
2019-04-27T08:45:19.311Z,1.10
2019-04-27T08:47:49.772Z,0.80
2019-04-27T08:50:19.059Z,1.00
2019-04-27T08:52:47.506Z,0.80
2019-04-27T08:55:15.779Z,1.00
2019-04-27T08:57:44.094Z,1.27
2019-04-27T09:00:12.363Z,1.40
2019-04-27T09:02:46.738Z,1.50
2019-04-27T09:05:10.626Z,1.63
2019-04-27T09:07:43.214Z,1.43
2019-04-27T09:10:29.401Z,1.87
2019-04-27T09:13:11.357Z,1.60
2019-04-27T09:15:53.282Z,1.60
2019-04-27T09:18:23.249Z,2.40
2019-04-27T09:20:53.184Z,1.73
2019-04-27T09:23:21.445Z,1.80
2019-04-27T09:25:49.805Z,1.50
2019-04-27T09:28:20.273Z,1.60
2019-04-27T09:30:49.808Z,1.57
2019-04-27T09:33:18.192Z,0.90
2019-04-27T09:35:46.688Z,1.30
2019-04-27T09:38:14.903Z,1.27
2019-04-27T09:40:43.184Z,1.20
2019-04-27T09:43:11.430Z,1.30
2019-04-27T09:45:40.195Z,1.33
2019-04-27T09:48:08.623Z,1.47
2019-04-27T09:50:36.905Z,1.40
2019-04-27T09:53:06.394Z,1.43
2019-04-27T09:55:36.707Z,1.45
2019-04-27T09:58:05.746Z,1.30
2019-04-27T10:00:34.157Z,1.22
2019-04-27T10:03:02.418Z,1.60
2019-04-27T10:05:30.676Z,1.40
2019-04-27T10:07:58.954Z,1.53
2019-04-27T10:10:27.208Z,1.50
2019-04-27T10:12:56.814Z,1.77
2019-04-27T10:17:56.032Z,1.47
2019-04-27T10:20:24.470Z,1.60
2019-04-27T10:22:52.867Z,1.70
2019-04-27T10:25:22.805Z,1.33
2019-04-27T10:27:52.790Z,2.60
2019-04-27T10:30:21.042Z,3.60
2019-04-27T10:32:49.324Z,7.37
2019-04-27T10:35:17.576Z,2.07
2019-04-27T10:37:45.841Z,1.67
2019-04-27T10:40:14.096Z,2.13
2019-04-27T10:42:42.364Z,1.70
2019-04-27T10:45:12.254Z,1.40
2019-04-27T10:47:40.541Z,1.50
2019-04-27T10:50:08.790Z,1.80
2019-04-27T10:52:52.597Z,1.60
2019-04-27T10:55:09.751Z,1.30
2019-04-27T10:57:38.043Z,1.50
2019-04-27T11:00:08.498Z,1.13
2019-04-27T11:02:36.768Z,1.70
2019-04-27T11:05:08.012Z,1.47
2019-04-27T11:07:38.061Z,1.13
2019-04-27T11:10:07.573Z,1.63
2019-04-27T11:15:05.876Z,1.20
2019-04-27T11:17:34.618Z,1.90
2019-04-27T11:20:03.741Z,0.90
2019-04-27T11:22:31.999Z,1.37
2019-04-27T11:25:00.283Z,0.97
2019-04-27T11:27:28.530Z,0.90
2019-04-27T11:29:56.801Z,0.80
2019-04-27T11:32:25.046Z,0.90
2019-04-27T11:35:00.670Z,0.87
2019-04-27T11:37:33.274Z,0.83
2019-04-27T11:40:01.550Z,1.00
2019-04-27T11:42:29.824Z,0.90
2019-04-27T11:44:58.429Z,0.50
2019-04-27T11:47:27.498Z,1.80
2019-04-27T11:49:57.935Z,0.80
2019-04-27T11:52:26.339Z,0.80
2019-04-27T11:54:55.723Z,2.00
2019-04-27T11:57:24.053Z,0.83
2019-04-27T11:59:52.370Z,0.73
2019-04-27T12:02:20.648Z,0.50
2019-04-27T12:04:48.926Z,0.60
2019-04-27T12:07:17.186Z,0.50
2019-04-27T12:09:46.242Z,0.73
2019-04-27T12:12:21.522Z,0.70
2019-04-27T12:14:47.341Z,0.77
2019-04-27T12:17:16.517Z,0.67
2019-04-27T12:19:46.498Z,0.60
2019-04-27T12:22:16.274Z,0.80
2019-04-27T12:24:45.733Z,0.50
2019-04-27T12:27:21.514Z,0.53
2019-04-27T12:30:07.627Z,0.50
2019-04-27T12:32:36.119Z,0.53
2019-04-27T12:35:06.740Z,0.70
2019-04-27T12:37:35.728Z,1.07
2019-04-27T12:40:08.059Z,0.70
2019-04-27T12:42:36.486Z,0.93
2019-04-27T12:45:06.702Z,0.80
2019-04-27T12:47:36.505Z,1.23
2019-04-27T12:50:12.720Z,0.60
2019-04-27T12:52:42.446Z,0.40
2019-04-27T12:57:48.727Z,0.50
2019-04-27T13:00:18.666Z,0.70
2019-04-27T13:02:46.959Z,0.60
2019-04-27T13:05:15.820Z,0.80
2019-04-27T13:07:44.155Z,0.50
2019-04-27T13:10:15.924Z,0.60
2019-04-27T13:12:45.977Z,0.60
2019-04-27T13:15:14.400Z,0.60
2019-04-27T13:17:42.663Z,0.70
2019-04-27T13:20:10.941Z,0.60
2019-04-27T13:22:39.204Z,0.47
2019-04-27T13:25:09.105Z,0.60
2019-04-27T13:27:37.366Z,0.37
2019-04-27T13:30:07.414Z,0.50
2019-04-27T13:32:37.172Z,0.50
2019-04-27T13:35:08.265Z,0.60
2019-04-27T13:37:44.055Z,0.47
2019-04-27T13:40:17.010Z,0.60
2019-04-27T13:42:53.775Z,1.00
2019-04-27T13:45:26.686Z,0.50
2019-04-27T13:47:58.972Z,0.50
2019-04-27T13:50:28.893Z,0.80
2019-04-27T13:52:57.158Z,0.77
2019-04-27T13:55:27.326Z,0.53
2019-04-27T13:57:55.603Z,0.60
2019-04-27T14:00:23.869Z,0.33
2019-04-27T14:02:53.561Z,0.50
2019-04-27T14:07:49.542Z,0.37
2019-04-27T14:10:18.263Z,0.60
2019-04-27T14:12:48.900Z,0.40
2019-04-27T14:15:18.697Z,0.40
2019-04-27T14:17:46.983Z,0.60
2019-04-27T14:20:15.402Z,0.50
2019-04-27T14:22:43.730Z,0.40
2019-04-27T14:25:12.058Z,0.40
2019-04-27T14:27:41.426Z,0.50
2019-04-27T14:30:11.343Z,0.42
2019-04-27T14:32:42.167Z,0.67
2019-04-27T14:35:09.590Z,0.53
2019-04-27T14:37:38.824Z,0.40
2019-04-27T14:40:08.505Z,0.57
2019-04-27T14:42:36.985Z,0.68
2019-04-27T14:45:09.005Z,0.43
2019-04-27T14:47:38.254Z,0.50
2019-04-27T14:50:08.850Z,0.50
2019-04-27T14:52:39.079Z,0.40
2019-04-27T14:55:08.582Z,1.27
2019-04-27T14:57:37.040Z,0.50
2019-04-27T15:00:05.967Z,0.70
2019-04-27T15:02:34.260Z,1.10
2019-04-27T15:05:02.521Z,1.63
2019-04-27T15:07:30.791Z,1.23
2019-04-27T15:09:59.036Z,0.77
2019-04-27T15:12:30.809Z,1.33
2019-04-27T15:14:59.017Z,1.90
2019-04-27T15:17:27.449Z,1.17
2019-04-27T15:19:57.389Z,1.53
2019-04-27T15:22:27.304Z,0.50
2019-04-27T15:25:09.053Z,0.80
2019-04-27T15:27:34.316Z,3.40
2019-04-27T15:30:03.056Z,5.73
2019-04-27T15:32:45.042Z,0.80
2019-04-27T15:35:20.892Z,0.57
2019-04-27T15:37:49.126Z,0.40
2019-04-27T15:40:21.756Z,0.50
2019-04-27T15:42:54.670Z,0.70
2019-04-27T15:45:24.336Z,0.83
2019-04-27T15:47:54.760Z,0.50
2019-04-27T15:50:23.432Z,0.90
2019-04-27T15:52:52.944Z,0.77
2019-04-27T15:55:32.101Z,0.40
2019-04-27T15:57:51.202Z,0.40
2019-04-27T16:00:21.128Z,0.60
2019-04-27T16:02:52.745Z,0.67
2019-04-27T16:05:19.428Z,0.70
2019-04-27T16:07:47.970Z,0.50
2019-04-27T16:10:17.731Z,0.70
2019-04-27T16:13:02.513Z,0.50
2019-04-27T16:15:17.579Z,0.57
2019-04-27T16:17:53.334Z,0.67
2019-04-27T16:20:22.421Z,1.80
2019-04-27T16:22:48.678Z,0.60
2019-04-27T16:25:16.404Z,0.40
2019-04-27T16:27:44.662Z,0.60
2019-04-27T16:30:17.831Z,0.40
2019-04-27T16:32:44.490Z,0.80
2019-04-27T16:35:13.969Z,0.40
2019-04-27T16:37:56.319Z,0.50
2019-04-27T16:40:24.548Z,0.60
2019-04-27T16:42:54.522Z,0.73
2019-04-27T16:50:28.861Z,1.10
2019-04-27T16:53:00.770Z,0.93
2019-04-27T16:55:28.070Z,0.90
2019-04-27T16:57:57.953Z,0.90
2019-04-27T17:00:30.226Z,0.60
2019-04-27T17:03:01.300Z,1.00
2019-04-27T17:05:30.844Z,0.70
2019-04-27T17:07:57.419Z,0.50
2019-04-27T17:10:27.128Z,0.70
2019-04-27T17:12:58.738Z,0.50
2019-04-27T17:15:46.194Z,0.80
2019-04-27T17:18:19.889Z,1.63
2019-04-27T17:20:52.616Z,0.85
2019-04-27T17:23:31.645Z,0.90
2019-04-27T17:26:09.364Z,0.90
2019-04-27T17:28:39.272Z,1.07
2019-04-27T17:31:08.796Z,1.00
2019-04-27T17:33:44.482Z,0.80
2019-04-27T17:36:12.079Z,1.10
2019-04-27T17:38:42.660Z,1.20
2019-04-27T17:41:12.735Z,0.90
2019-04-27T17:43:41.555Z,0.72
2019-04-27T17:46:11.531Z,0.98
2019-04-27T17:48:40.862Z,0.87
2019-04-27T17:51:09.336Z,0.80
2019-04-27T17:53:37.757Z,2.50
2019-04-27T17:56:06.293Z,1.67
2019-04-27T17:58:39.641Z,0.80
2019-04-27T18:01:08.421Z,1.00
2019-04-27T18:03:38.643Z,0.67
2019-04-27T18:06:08.543Z,0.50
2019-04-27T18:08:40.100Z,0.73
2019-04-27T18:11:08.638Z,1.20
2019-04-27T18:13:38.810Z,0.87
2019-04-27T18:16:08.984Z,1.40
2019-04-27T18:18:40.325Z,1.23
2019-04-27T18:21:08.877Z,0.90
2019-04-27T18:23:38.772Z,1.00
2019-04-27T18:26:08.700Z,0.90
2019-04-27T18:28:45.844Z,1.30
2019-04-27T18:31:16.051Z,0.77
2019-04-27T18:33:44.649Z,0.87
2019-04-27T18:36:14.308Z,1.27
2019-04-27T18:38:43.577Z,1.27
2019-04-27T18:43:46.588Z,0.90
2019-04-27T18:46:10.450Z,1.20
2019-04-27T18:48:50.253Z,1.13
2019-04-27T18:51:28.900Z,1.20
2019-04-27T18:54:02.099Z,1.27
2019-04-27T18:56:29.082Z,1.20
2019-04-27T18:58:59.793Z,1.10
2019-04-27T19:01:28.921Z,1.00
2019-04-27T19:03:58.636Z,1.42
2019-04-27T19:06:28.896Z,1.00
2019-04-27T19:08:58.981Z,1.30
2019-04-27T19:11:28.957Z,1.23
2019-04-27T19:13:56.943Z,1.10
2019-04-27T19:16:25.233Z,0.93
2019-04-27T19:18:53.765Z,1.20
2019-04-27T19:21:22.043Z,1.20
2019-04-27T19:23:50.299Z,1.20
2019-04-27T19:26:20.608Z,1.30
2019-04-27T19:29:05.891Z,1.60
2019-04-27T19:31:35.878Z,1.37
2019-04-27T19:34:12.289Z,1.50
2019-04-27T19:36:40.562Z,1.37
2019-04-27T19:39:10.451Z,1.60
2019-04-27T19:41:38.729Z,1.80
2019-04-27T19:44:09.909Z,1.50
2019-04-27T19:46:36.997Z,1.53
2019-04-27T19:49:05.242Z,1.20
2019-04-27T19:51:33.491Z,1.83
2019-04-27T19:54:01.769Z,2.10
2019-04-27T19:56:30.398Z,1.53
2019-04-27T19:59:00.308Z,1.57
2019-04-27T20:01:38.325Z,1.40
2019-04-27T20:04:23.191Z,1.47
2019-04-27T20:06:51.487Z,1.70
2019-04-27T20:09:33.390Z,2.00
2019-04-27T20:12:02.896Z,1.83
2019-04-27T20:14:33.719Z,2.00
2019-04-27T20:17:02.811Z,1.73
2019-04-27T20:19:41.553Z,2.20
2019-04-27T20:22:10.743Z,1.80
2019-04-27T20:24:38.985Z,1.87
2019-04-27T20:27:07.256Z,1.10
2019-04-27T20:29:35.526Z,1.47
2019-04-27T20:32:04.621Z,2.27
2019-04-27T20:34:33.192Z,1.65
2019-04-27T20:37:01.692Z,1.47
2019-04-27T20:39:30.034Z,1.33
2019-04-27T20:41:58.244Z,1.07
2019-04-27T20:44:26.522Z,1.23
2019-04-27T20:46:54.788Z,0.90
2019-04-27T20:49:23.377Z,0.80
2019-04-27T20:52:00.941Z,0.90
2019-04-27T20:54:30.613Z,1.10
2019-04-27T20:56:59.329Z,0.90
2019-04-27T20:59:28.086Z,1.10
2019-04-27T21:01:57.971Z,1.00
2019-04-27T21:04:36.850Z,1.10
2019-04-27T21:07:06.787Z,0.80
2019-04-27T21:09:35.061Z,0.90
2019-04-27T21:12:05.178Z,0.80
2019-04-27T21:14:35.672Z,1.27
2019-04-27T21:17:04.205Z,0.80
2019-04-27T21:19:34.396Z,1.20
2019-04-27T21:22:03.529Z,0.77
2019-04-27T21:24:32.746Z,1.17
2019-04-27T21:27:01.355Z,0.97
2019-04-27T21:29:31.185Z,0.90
2019-04-27T21:32:01.066Z,1.00
2019-04-27T21:36:57.067Z,1.00
2019-04-27T21:39:25.361Z,0.83
2019-04-27T21:41:53.621Z,0.73
2019-04-27T21:44:21.955Z,0.77
2019-04-27T21:46:51.861Z,1.30
2019-04-27T21:49:21.918Z,0.90
2019-04-27T21:54:52.601Z,0.70
2019-04-27T21:57:21.099Z,0.57
2019-04-27T21:59:49.329Z,0.73
2019-04-27T22:02:19.449Z,0.60
2019-04-27T22:04:47.723Z,0.70
2019-04-27T22:07:15.993Z,0.67
2019-04-27T22:09:44.271Z,0.73
2019-04-27T22:12:12.529Z,1.17
2019-04-27T22:14:40.804Z,0.60
2019-04-27T22:17:10.891Z,0.30
2019-04-27T22:19:39.054Z,0.33
2019-04-27T22:22:10.652Z,0.50
2019-04-27T22:24:42.814Z,0.50
2019-04-27T22:27:09.576Z,0.60
2019-04-27T22:29:37.881Z,0.60
2019-04-27T22:32:06.199Z,0.50
2019-04-27T22:34:34.480Z,0.80
2019-04-27T22:37:02.846Z,0.50
2019-04-27T22:39:35.968Z,0.87
2019-04-27T22:42:05.861Z,0.70
2019-04-27T22:47:13.002Z,0.70
2019-04-27T22:49:41.243Z,0.42
2019-04-27T22:52:09.503Z,0.50
2019-04-27T22:54:37.765Z,0.83
2019-04-27T22:57:07.684Z,0.43
2019-04-27T22:59:52.493Z,0.80
2019-04-27T23:02:29.387Z,0.73
2019-04-27T23:04:59.401Z,0.67
2019-04-27T23:07:27.646Z,1.10
2019-04-27T23:09:55.924Z,0.90
2019-04-27T23:12:24.163Z,0.80
2019-04-27T23:14:52.440Z,0.67
2019-04-27T23:17:38.446Z,0.93
2019-04-27T23:20:07.564Z,0.80
2019-04-27T23:22:35.814Z,1.02
2019-04-27T23:25:06.250Z,0.83
2019-04-27T23:27:34.494Z,0.80
2019-04-27T23:30:02.814Z,0.40
2019-04-27T23:32:32.745Z,0.70
2019-04-27T23:35:00.994Z,1.00
2019-04-27T23:37:29.264Z,1.05
2019-04-27T23:39:57.525Z,0.97
2019-04-27T23:42:25.813Z,0.73
2019-04-27T23:44:54.078Z,1.13
2019-04-27T23:47:22.356Z,0.73
2019-04-27T23:49:50.919Z,0.73
2019-04-27T23:52:23.696Z,0.90
2019-04-27T23:54:51.944Z,1.30
2019-04-27T23:57:21.790Z,0.50
2019-04-27T23:59:51.499Z,0.90
